Lower Gwynedd, Pennsylvania
Current Conditions -  °F | °C
As of 11:15 AM on Monday 24 Nov 2014 (Local Time) from KLOM Reporting Station
Broken Clouds Broken Clouds  
Wind Chill: 70°   Ceiling: 2500
Heat Index: 70°   Visibility: 10mi
Dew Point: 61°   Wind: 14mph
Humidity: 73%   Direction: 220°SW
Pressure: 29.65"   Gusts: 26mph
Location:  40.1823°N, 75.2133°W
Report Text: KLOM 241615Z AUTO 22012G23KT 10SM BKN025 21/16 A2965 RMK AO1
Loading
Personal Weather Stations






























Interactive Weather Map New forecast layout! Learn more

10-Day Weather Forecast

Advertisements
Track Severe Weather on mobile